createdAt,value
2023-04-09T00:00:01.190Z,79.04
2023-04-09T00:03:03.759Z,78.65
2023-04-09T00:06:06.832Z,78.43
2023-04-09T00:09:09.241Z,78.58
2023-04-09T00:12:11.874Z,78.57
2023-04-09T00:15:24.350Z,78.51
2023-04-09T00:18:33.890Z,78.24
2023-04-09T00:21:37.128Z,78.31
2023-04-09T00:24:39.688Z,78.45
2023-04-09T00:27:41.979Z,79.04
2023-04-09T00:30:44.623Z,78.61
2023-04-09T00:33:47.081Z,78.86
2023-04-09T00:36:49.765Z,78.85
2023-04-09T00:39:52.059Z,78.48
2023-04-09T00:42:54.654Z,78.60
2023-04-09T00:45:58.418Z,78.57
2023-04-09T00:49:01.519Z,79.08
2023-04-09T00:52:04.203Z,78.31
2023-04-09T00:55:08.039Z,78.56
2023-04-09T00:58:10.520Z,78.20
2023-04-09T01:01:13.194Z,77.86
2023-04-09T01:04:15.632Z,78.02
2023-04-09T01:07:27.219Z,78.45
2023-04-09T01:10:57.653Z,79.19
2023-04-09T01:14:20.212Z,79.22
2023-04-09T01:17:31.777Z,79.03
2023-04-09T01:20:48.213Z,78.49
2023-04-09T01:24:16.241Z,79.20
2023-04-09T01:27:19.846Z,78.84
2023-04-09T01:30:23.153Z,78.61
2023-04-09T01:33:26.508Z,78.68
2023-04-09T01:36:32.370Z,79.16
2023-04-09T01:39:37.589Z,78.19
2023-04-09T01:42:41.428Z,78.73
2023-04-09T01:45:45.568Z,78.41
2023-04-09T01:48:49.703Z,78.95
2023-04-09T01:51:52.676Z,79.20
2023-04-09T01:54:55.005Z,78.67
2023-04-09T01:57:57.685Z,79.16
2023-04-09T02:01:24.644Z,79.20
2023-04-09T02:04:33.510Z,79.58
2023-04-09T02:07:42.781Z,79.18
2023-04-09T02:10:53.588Z,78.72
2023-04-09T02:13:58.183Z,78.69
2023-04-09T02:17:01.563Z,78.80
2023-04-09T02:20:04.213Z,79.65
2023-04-09T02:23:06.824Z,79.44
2023-04-09T02:26:09.160Z,78.58
2023-04-09T02:29:12.022Z,78.52
2023-04-09T02:32:14.402Z,78.99
2023-04-09T02:35:17.107Z,79.07
2023-04-09T02:38:19.415Z,78.68
2023-04-09T02:41:22.575Z,79.06
2023-04-09T02:44:24.965Z,78.87
2023-04-09T02:47:30.378Z,78.70
2023-04-09T02:50:33.720Z,79.02
2023-04-09T02:53:37.788Z,79.08
2023-04-09T02:56:40.341Z,79.97
2023-04-09T02:59:42.999Z,80.28
2023-04-09T03:02:45.544Z,79.36
2023-04-09T03:05:50.357Z,79.49
2023-04-09T03:08:52.964Z,78.97
2023-04-09T03:11:57.316Z,78.97
2023-04-09T03:14:59.742Z,78.65
2023-04-09T03:18:02.521Z,79.04
2023-04-09T03:21:08.773Z,78.80
2023-04-09T03:24:12.531Z,78.33
2023-04-09T03:27:15.333Z,78.73
2023-04-09T03:30:18.128Z,78.56
2023-04-09T03:33:20.727Z,78.46
2023-04-09T03:36:24.194Z,79.60
2023-04-09T03:39:30.926Z,79.32
2023-04-09T03:42:35.052Z,78.76
2023-04-09T03:45:37.848Z,78.61
2023-04-09T03:48:47.088Z,79.99
2023-04-09T03:51:49.594Z,79.35
2023-04-09T03:54:52.551Z,79.23
2023-04-09T03:57:55.733Z,79.51
2023-04-09T04:01:01.844Z,79.83
2023-04-09T04:04:05.365Z,79.67
2023-04-09T04:07:08.732Z,79.75
2023-04-09T04:10:11.980Z,80.01
2023-04-09T04:13:17.283Z,79.75
2023-04-09T04:16:21.170Z,79.85
2023-04-09T04:19:23.767Z,80.03
2023-04-09T04:22:26.776Z,79.69
2023-04-09T04:25:30.965Z,79.98
2023-04-09T04:28:33.589Z,79.55
2023-04-09T04:31:36.279Z,79.67
2023-04-09T04:34:38.993Z,79.51
2023-04-09T04:37:42.622Z,80.01
2023-04-09T04:40:45.474Z,79.59
2023-04-09T04:43:48.203Z,79.95
2023-04-09T04:46:53.434Z,80.24
2023-04-09T04:49:55.917Z,79.69
2023-04-09T04:52:58.761Z,79.47
2023-04-09T04:56:02.153Z,80.13
2023-04-09T04:59:04.983Z,79.70
2023-04-09T05:02:11.083Z,79.91
2023-04-09T05:05:14.938Z,79.50
2023-04-09T05:08:18.468Z,79.23
2023-04-09T05:11:22.877Z,79.42
2023-04-09T05:14:26.253Z,79.14
2023-04-09T05:17:29.120Z,78.92
2023-04-09T05:20:31.504Z,78.82
2023-04-09T05:23:36.650Z,78.83
2023-04-09T05:26:39.014Z,79.80
2023-04-09T05:29:41.653Z,79.98
2023-04-09T05:32:44.520Z,78.79
2023-04-09T05:35:50.183Z,79.73
2023-04-09T05:38:52.896Z,80.10
2023-04-09T05:41:56.398Z,78.83
2023-04-09T05:45:01.241Z,78.95
2023-04-09T05:48:04.555Z,78.26
2023-04-09T05:51:07.198Z,78.24
2023-04-09T05:54:09.968Z,78.73
2023-04-09T05:57:13.130Z,78.68
2023-04-09T06:00:16.714Z,78.08
2023-04-09T06:03:19.479Z,77.60
2023-04-09T06:06:22.583Z,77.39
2023-04-09T06:09:24.880Z,78.24
2023-04-09T06:12:27.623Z,77.59
2023-04-09T06:15:30.111Z,77.32
2023-04-09T06:18:33.125Z,77.23
2023-04-09T06:21:35.478Z,76.69
2023-04-09T06:24:38.196Z,76.55
2023-04-09T06:27:40.490Z,76.99
2023-04-09T06:30:43.066Z,77.32
2023-04-09T06:33:45.372Z,75.64
2023-04-09T06:36:48.067Z,75.30
2023-04-09T06:40:00.301Z,75.13
2023-04-09T06:43:03.876Z,75.55
2023-04-09T06:46:08.895Z,74.55
2023-04-09T06:49:11.716Z,74.24
2023-04-09T06:52:14.052Z,74.41
2023-04-09T06:55:16.671Z,74.22
2023-04-09T06:58:18.969Z,74.17
2023-04-09T07:01:21.733Z,73.86
2023-04-09T07:04:24.254Z,73.40
2023-04-09T07:07:26.914Z,73.14
2023-04-09T07:10:29.206Z,73.90
2023-04-09T07:13:34.053Z,73.95
2023-04-09T07:16:36.351Z,72.95
2023-04-09T07:19:38.950Z,72.77
2023-04-09T07:22:41.717Z,71.59
2023-04-09T07:25:44.619Z,71.24
2023-04-09T07:28:46.950Z,71.49
2023-04-09T07:31:49.636Z,71.59
2023-04-09T07:34:53.052Z,70.84
2023-04-09T07:37:55.863Z,70.68
2023-04-09T07:40:58.522Z,69.20
2023-04-09T07:44:03.511Z,69.04
2023-04-09T07:47:08.068Z,68.03
2023-04-09T07:50:12.059Z,67.87
2023-04-09T07:53:14.680Z,67.24
2023-04-09T07:56:17.311Z,67.52
2023-04-09T07:59:19.703Z,66.70
2023-04-09T08:02:23.996Z,66.37
2023-04-09T08:05:27.176Z,64.89
2023-04-09T08:08:29.524Z,64.66
2023-04-09T08:11:32.659Z,64.15
2023-04-09T08:14:35.080Z,63.42
2023-04-09T08:17:39.982Z,62.86
2023-04-09T08:20:45.587Z,62.71
2023-04-09T08:23:48.420Z,62.12
2023-04-09T08:26:51.255Z,61.77
2023-04-09T08:29:58.193Z,62.05
2023-04-09T08:33:03.986Z,60.90
2023-04-09T08:36:09.296Z,61.61
2023-04-09T08:39:12.080Z,61.10
2023-04-09T08:42:16.184Z,60.03
2023-04-09T08:45:18.837Z,59.88
2023-04-09T08:48:22.533Z,59.59
2023-04-09T08:51:25.704Z,59.42
2023-04-09T08:54:28.474Z,60.31
2023-04-09T08:57:31.173Z,58.46
2023-04-09T09:00:33.933Z,58.57
2023-04-09T09:04:12.361Z,58.45
2023-04-09T09:07:16.454Z,58.53
2023-04-09T09:10:18.822Z,58.47
2023-04-09T09:13:28.153Z,58.49
2023-04-09T09:16:33.189Z,58.74
2023-04-09T09:19:36.433Z,59.00
2023-04-09T09:22:55.880Z,59.29
2023-04-09T09:26:21.004Z,59.62
2023-04-09T09:29:23.323Z,58.67
2023-04-09T09:32:26.027Z,58.56
2023-04-09T09:35:28.461Z,58.57
2023-04-09T09:38:32.176Z,58.53
2023-04-09T09:41:34.519Z,59.09
2023-04-09T09:44:37.122Z,57.81
2023-04-09T09:47:39.700Z,57.60
2023-04-09T09:50:44.455Z,57.59
2023-04-09T09:53:50.254Z,59.12
2023-04-09T09:56:56.043Z,58.65
2023-04-09T10:00:04.241Z,58.40
2023-04-09T10:03:16.155Z,59.06
2023-04-09T10:06:19.378Z,58.79
2023-04-09T10:09:23.474Z,58.61
2023-04-09T10:12:27.240Z,58.32
2023-04-09T10:15:30.082Z,58.36
2023-04-09T10:18:36.349Z,59.74
2023-04-09T10:22:09.047Z,60.17
2023-04-09T10:25:12.088Z,60.33
2023-04-09T10:28:18.872Z,59.70
2023-04-09T10:31:21.642Z,60.00
2023-04-09T10:34:28.101Z,59.41
2023-04-09T10:37:30.956Z,60.70
2023-04-09T10:40:33.788Z,59.74
2023-04-09T10:43:37.146Z,58.87
2023-04-09T10:46:42.321Z,59.05
2023-04-09T10:49:44.953Z,58.66
2023-04-09T10:52:52.101Z,58.42
2023-04-09T10:55:55.513Z,57.37
2023-04-09T10:58:57.834Z,58.44
2023-04-09T11:02:00.594Z,57.49
2023-04-09T11:05:17.913Z,57.03
2023-04-09T11:08:22.274Z,57.41
2023-04-09T11:11:28.281Z,57.29
2023-04-09T11:14:31.807Z,57.01
2023-04-09T11:17:37.346Z,57.97
2023-04-09T11:20:40.569Z,58.12
2023-04-09T11:23:51.379Z,60.09
2023-04-09T11:26:54.910Z,58.93
2023-04-09T11:29:57.349Z,59.03
2023-04-09T11:33:01.081Z,60.33
2023-04-09T11:36:06.429Z,59.75
2023-04-09T11:39:09.141Z,58.81
2023-04-09T11:42:15.733Z,58.61
2023-04-09T11:45:19.709Z,58.51
2023-04-09T11:48:24.808Z,58.23
2023-04-09T11:51:28.732Z,57.45
2023-04-09T11:54:34.772Z,57.18
2023-04-09T11:57:45.983Z,57.22
2023-04-09T12:00:48.444Z,56.69
2023-04-09T12:03:55.524Z,55.60
2023-04-09T12:06:58.919Z,55.91
2023-04-09T12:10:06.831Z,56.01
2023-04-09T12:13:13.763Z,55.90
2023-04-09T12:16:21.032Z,56.17
2023-04-09T12:19:25.830Z,55.76
2023-04-09T12:22:28.421Z,54.60
2023-04-09T12:25:32.632Z,54.35
2023-04-09T12:28:35.488Z,53.85
2023-04-09T12:31:37.885Z,53.19
2023-04-09T12:34:41.067Z,51.54
2023-04-09T12:37:44.554Z,50.75
2023-04-09T12:40:47.380Z,50.18
2023-04-09T12:43:49.837Z,49.01
2023-04-09T12:46:52.503Z,48.29
2023-04-09T12:49:55.081Z,47.12
2023-04-09T12:52:57.653Z,46.68
2023-04-09T12:56:00.008Z,45.43
2023-04-09T12:59:02.620Z,44.65
2023-04-09T13:02:05.375Z,45.29
2023-04-09T13:05:08.705Z,46.03
2023-04-09T13:08:11.253Z,45.54
2023-04-09T13:11:13.876Z,45.98
2023-04-09T13:14:16.200Z,45.63
2023-04-09T13:17:18.847Z,47.32
2023-04-09T13:20:21.185Z,47.71
2023-04-09T13:23:23.775Z,47.50
2023-04-09T13:26:26.121Z,48.50
2023-04-09T13:29:29.461Z,48.42
2023-04-09T13:32:31.821Z,49.12
2023-04-09T13:35:34.651Z,47.64
2023-04-09T13:38:37.070Z,47.22
2023-04-09T13:41:40.542Z,46.96
2023-04-09T13:44:46.955Z,47.43
2023-04-09T13:47:50.116Z,47.17
2023-04-09T13:50:52.729Z,47.16
2023-04-09T13:53:55.712Z,48.57
2023-04-09T13:56:58.000Z,47.53
2023-04-09T14:00:04.168Z,49.13
2023-04-09T14:03:07.550Z,48.29
2023-04-09T14:06:10.603Z,48.33
2023-04-09T14:09:13.354Z,47.92
2023-04-09T14:12:15.990Z,48.24
2023-04-09T14:15:18.281Z,49.86
2023-04-09T14:18:21.029Z,48.17
2023-04-09T14:21:23.982Z,51.75
2023-04-09T14:24:26.718Z,49.72
2023-04-09T14:27:29.002Z,48.27
2023-04-09T14:30:31.621Z,50.25
2023-04-09T14:33:34.024Z,47.85
2023-04-09T14:36:36.602Z,47.77
2023-04-09T14:39:38.916Z,49.54
2023-04-09T14:42:41.813Z,46.54
2023-04-09T14:45:44.509Z,48.03
2023-04-09T14:48:47.131Z,46.78
2023-04-09T14:51:49.658Z,45.97
2023-04-09T14:54:52.240Z,45.47
2023-04-09T14:57:54.600Z,46.97
2023-04-09T15:00:57.632Z,48.87
2023-04-09T15:04:00.642Z,46.33
2023-04-09T15:07:03.526Z,46.53
2023-04-09T15:10:06.664Z,48.40
2023-04-09T15:13:09.338Z,50.41
2023-04-09T15:16:20.155Z,47.11
2023-04-09T15:19:22.900Z,49.58
2023-04-09T15:22:25.321Z,48.57
2023-04-09T15:25:27.944Z,51.41
2023-04-09T15:28:30.373Z,49.96
2023-04-09T15:31:34.094Z,51.95
2023-04-09T15:34:36.756Z,53.07
2023-04-09T15:37:39.312Z,53.49
2023-04-09T15:40:42.484Z,51.54
2023-04-09T15:43:45.336Z,51.75
2023-04-09T15:46:47.808Z,51.42
2023-04-09T15:49:50.608Z,51.96
2023-04-09T15:52:53.050Z,53.72
2023-04-09T15:55:55.764Z,56.56
2023-04-09T15:58:58.839Z,56.74
2023-04-09T16:02:03.180Z,55.54
2023-04-09T16:05:07.201Z,55.99
2023-04-09T16:08:09.594Z,55.54
2023-04-09T16:11:12.198Z,55.08
2023-04-09T16:14:14.534Z,54.76
2023-04-09T16:17:17.566Z,56.22
2023-04-09T16:20:19.980Z,55.56
2023-04-09T16:23:24.636Z,56.81
2023-04-09T16:26:27.022Z,55.66
2023-04-09T16:29:29.642Z,58.79
2023-04-09T16:32:31.963Z,56.13
2023-04-09T16:35:37.205Z,58.14
2023-04-09T16:38:41.583Z,55.97
2023-04-09T16:41:44.610Z,56.26
2023-04-09T16:44:46.899Z,57.41
2023-04-09T16:47:53.988Z,56.48
2023-04-09T16:50:56.465Z,55.60
2023-04-09T16:53:59.047Z,57.81
2023-04-09T16:57:01.872Z,56.13
2023-04-09T17:00:06.743Z,56.24
2023-04-09T17:03:09.398Z,56.58
2023-04-09T17:06:12.257Z,57.85
2023-04-09T17:09:14.662Z,58.64
2023-04-09T17:12:18.295Z,56.99
2023-04-09T17:15:21.575Z,57.15
2023-04-09T17:18:24.418Z,57.49
2023-04-09T17:21:27.347Z,57.45
2023-04-09T17:24:30.274Z,57.05
2023-04-09T17:27:32.633Z,57.66
2023-04-09T17:30:35.826Z,58.16
2023-04-09T17:33:38.629Z,59.10
2023-04-09T17:36:41.430Z,58.17
2023-04-09T17:39:43.837Z,57.79
2023-04-09T17:42:46.734Z,58.14
2023-04-09T17:45:49.309Z,59.37
2023-04-09T17:48:52.890Z,57.43
2023-04-09T17:51:55.512Z,57.64
2023-04-09T17:54:58.366Z,59.18
2023-04-09T17:58:00.819Z,58.15
2023-04-09T18:04:27.913Z,59.71
2023-04-09T18:07:33.818Z,59.10
2023-04-09T18:10:37.015Z,60.67
2023-04-09T18:13:39.606Z,60.47
2023-04-09T18:16:42.366Z,60.51
2023-04-09T18:19:44.702Z,60.59
2023-04-09T18:22:48.970Z,61.74
2023-04-09T18:25:51.586Z,61.89
2023-04-09T18:28:55.035Z,60.11
2023-04-09T18:31:58.369Z,63.17
2023-04-09T18:35:01.093Z,60.52
2023-04-09T18:38:03.522Z,62.15
2023-04-09T18:41:06.296Z,62.53
2023-04-09T18:44:09.021Z,62.66
2023-04-09T18:47:11.923Z,61.56
2023-04-09T18:50:18.761Z,62.83
2023-04-09T18:53:21.757Z,64.62
2023-04-09T18:56:25.131Z,61.51
2023-04-09T18:59:28.448Z,63.56
2023-04-09T19:02:30.996Z,62.06
2023-04-09T19:05:34.606Z,63.98
2023-04-09T19:08:38.439Z,63.46
2023-04-09T19:11:41.159Z,63.83
2023-04-09T19:14:43.580Z,64.31
2023-04-09T19:17:46.416Z,63.43
2023-04-09T19:20:48.801Z,64.66
2023-04-09T19:23:51.588Z,63.39
2023-04-09T19:26:54.890Z,63.62
2023-04-09T19:29:58.864Z,63.38
2023-04-09T19:33:01.244Z,64.51
2023-04-09T19:36:04.349Z,65.21
2023-04-09T19:39:07.770Z,63.84
2023-04-09T19:42:10.368Z,65.13
2023-04-09T19:45:12.728Z,65.90
2023-04-09T19:48:15.588Z,65.04
2023-04-09T19:51:20.030Z,65.67
2023-04-09T19:54:22.813Z,65.00
2023-04-09T19:57:26.566Z,65.64
2023-04-09T20:00:29.245Z,65.52
2023-04-09T20:03:33.356Z,66.04
2023-04-09T20:06:37.995Z,66.16
2023-04-09T20:09:42.546Z,66.53
2023-04-09T20:12:49.262Z,66.68
2023-04-09T20:15:52.980Z,66.24
2023-04-09T20:18:55.545Z,66.54
2023-04-09T20:22:00.255Z,65.80
2023-04-09T20:25:03.232Z,65.91
2023-04-09T20:28:06.419Z,66.55
2023-04-09T20:31:09.030Z,66.17
2023-04-09T20:34:11.663Z,66.47
2023-04-09T20:37:13.989Z,66.65
2023-04-09T20:40:16.954Z,66.50
2023-04-09T20:43:20.108Z,66.26
2023-04-09T20:46:22.791Z,67.11
2023-04-09T20:49:25.267Z,66.97
2023-04-09T20:52:30.740Z,67.07
2023-04-09T20:55:33.055Z,67.76
2023-04-09T20:58:35.736Z,67.59
2023-04-09T21:01:38.198Z,67.51
2023-04-09T21:04:40.894Z,67.37
2023-04-09T21:07:43.258Z,67.97
2023-04-09T21:10:45.897Z,67.94
2023-04-09T21:13:54.448Z,68.30
2023-04-09T21:16:58.304Z,68.32
2023-04-09T21:20:00.707Z,68.54
2023-04-09T21:23:03.308Z,68.06
2023-04-09T21:26:06.087Z,67.85
2023-04-09T21:29:09.077Z,67.83
2023-04-09T21:32:11.573Z,68.34
2023-04-09T21:35:14.190Z,68.65
2023-04-09T21:38:16.561Z,68.64
2023-04-09T21:41:19.748Z,68.58
2023-04-09T21:44:22.071Z,68.46
2023-04-09T21:47:26.354Z,69.04
2023-04-09T21:50:29.797Z,69.06
2023-04-09T21:53:32.676Z,69.58
2023-04-09T21:56:36.262Z,68.85
2023-04-09T21:59:41.186Z,69.10
2023-04-09T22:02:43.784Z,69.29
2023-04-09T22:05:46.608Z,69.26
2023-04-09T22:08:55.437Z,69.68
2023-04-09T22:11:59.881Z,69.71
2023-04-09T22:15:04.075Z,69.29
2023-04-09T22:18:06.728Z,69.76
2023-04-09T22:21:09.226Z,69.81
2023-04-09T22:24:14.064Z,69.99
2023-04-09T22:27:16.640Z,69.63
2023-04-09T22:30:20.877Z,70.35
2023-04-09T22:33:23.488Z,69.79
2023-04-09T22:36:27.321Z,70.53
2023-04-09T22:39:29.734Z,70.32
2023-04-09T22:42:33.029Z,70.14
2023-04-09T22:45:35.353Z,69.53
2023-04-09T22:48:44.107Z,70.19
2023-04-09T22:51:47.415Z,70.10
2023-04-09T22:54:50.045Z,70.20
2023-04-09T22:57:52.971Z,70.15
2023-04-09T23:00:56.519Z,70.05
2023-04-09T23:03:58.818Z,69.94
2023-04-09T23:07:02.326Z,69.74
2023-04-09T23:10:05.410Z,70.22
2023-04-09T23:13:10.304Z,70.27
2023-04-09T23:16:14.401Z,70.24
2023-04-09T23:19:17.065Z,69.87
2023-04-09T23:22:19.545Z,70.49
2023-04-09T23:25:22.596Z,69.77
2023-04-09T23:28:24.984Z,69.86
2023-04-09T23:31:27.687Z,70.37
2023-04-09T23:34:30.028Z,70.33
2023-04-09T23:37:32.655Z,70.11
2023-04-09T23:40:35.031Z,70.02
2023-04-09T23:43:37.718Z,69.87
2023-04-09T23:46:40.538Z,70.15
2023-04-09T23:49:43.489Z,69.72
2023-04-09T23:52:47.563Z,69.78
2023-04-09T23:55:51.064Z,70.09
2023-04-09T23:58:53.496Z,69.74
